sensor_id;sensor_type;location;lat;lon;timestamp;pressure;altitude;pressure_sealevel;temperature;humidity
9035;BME280;4552;43.422;24.592;2023-11-22T00:00:28;99246.00;;;11.07;100.00
9035;BME280;4552;43.422;24.592;2023-11-22T00:02:58;99263.06;;;10.90;100.00
9035;BME280;4552;43.422;24.592;2023-11-22T00:05:26;99275.50;;;10.82;100.00
9035;BME280;4552;43.422;24.592;2023-11-22T00:07:57;99282.00;;;10.66;100.00
9035;BME280;4552;43.422;24.592;2023-11-22T00:57:35;99311.03;;;10.18;100.00
9035;BME280;4552;43.422;24.592;2023-11-22T01:00:21;99321.06;;;10.36;100.00
9035;BME280;4552;43.422;24.592;2023-11-22T01:02:49;99315.84;;;10.36;100.00
9035;BME280;4552;43.422;24.592;2023-11-22T01:05:16;99316.31;;;10.15;100.00
9035;BME280;4552;43.422;24.592;2023-11-22T01:07:43;99312.06;;;10.11;100.00
9035;BME280;4552;43.422;24.592;2023-11-22T01:10:10;99299.00;;;10.11;100.00
9035;BME280;4552;43.422;24.592;2023-11-22T01:12:42;99301.31;;;10.25;100.00
9035;BME280;4552;43.422;24.592;2023-11-22T01:15:09;99305.38;;;10.36;100.00
9035;BME280;4552;43.422;24.592;2023-11-22T01:17:36;99312.59;;;10.27;100.00
9035;BME280;4552;43.422;24.592;2023-11-22T01:20:04;99308.97;;;10.32;100.00
9035;BME280;4552;43.422;24.592;2023-11-22T01:22:33;99305.44;;;10.33;100.00
9035;BME280;4552;43.422;24.592;2023-11-22T02:06:00;99275.00;;;10.31;100.00
9035;BME280;4552;43.422;24.592;2023-11-22T02:08:27;99266.00;;;10.42;100.00
9035;BME280;4552;43.422;24.592;2023-11-22T02:11:00;99277.59;;;10.32;100.00
9035;BME280;4552;43.422;24.592;2023-11-22T02:13:48;99275.13;;;10.26;100.00
9035;BME280;4552;43.422;24.592;2023-11-22T02:16:15;99272.81;;;10.13;100.00
9035;BME280;4552;43.422;24.592;2023-11-22T02:18:43;99270.91;;;10.19;100.00
9035;BME280;4552;43.422;24.592;2023-11-22T02:21:13;99273.69;;;10.12;100.00
9035;BME280;4552;43.422;24.592;2023-11-22T02:23:55;99282.16;;;10.23;100.00
9035;BME280;4552;43.422;24.592;2023-11-22T02:26:24;99279.72;;;10.15;100.00
9035;BME280;4552;43.422;24.592;2023-11-22T02:29:07;99281.50;;;10.13;100.00
9035;BME280;4552;43.422;24.592;2023-11-22T02:31:36;99276.13;;;10.19;100.00
9035;BME280;4552;43.422;24.592;2023-11-22T02:34:03;99284.16;;;10.12;100.00
9035;BME280;4552;43.422;24.592;2023-11-22T02:36:30;99273.66;;;10.13;100.00
9035;BME280;4552;43.422;24.592;2023-11-22T03:20:08;99282.50;;;10.06;100.00
9035;BME280;4552;43.422;24.592;2023-11-22T03:22:37;99288.53;;;10.11;100.00
9035;BME280;4552;43.422;24.592;2023-11-22T03:25:05;99268.13;;;9.86;100.00
9035;BME280;4552;43.422;24.592;2023-11-22T03:27:35;99286.03;;;10.05;100.00
9035;BME280;4552;43.422;24.592;2023-11-22T03:30:06;99276.28;;;10.13;100.00
9035;BME280;4552;43.422;24.592;2023-11-22T03:32:41;99275.25;;;10.20;100.00
9035;BME280;4552;43.422;24.592;2023-11-22T03:35:10;99264.28;;;10.03;100.00
9035;BME280;4552;43.422;24.592;2023-11-22T03:37:40;99269.44;;;10.06;100.00
9035;BME280;4552;43.422;24.592;2023-11-22T03:40:17;99293.22;;;10.35;100.00
9035;BME280;4552;43.422;24.592;2023-11-22T03:42:45;99312.88;;;10.13;100.00
9035;BME280;4552;43.422;24.592;2023-11-22T03:45:13;99307.03;;;10.01;100.00
9035;BME280;4552;43.422;24.592;2023-11-22T03:47:40;99288.88;;;9.93;100.00
9035;BME280;4552;43.422;24.592;2023-11-22T03:50:07;99308.72;;;10.03;100.00
9035;BME280;4552;43.422;24.592;2023-11-22T03:52:37;99294.09;;;9.93;100.00
9035;BME280;4552;43.422;24.592;2023-11-22T04:05:10;99316.50;;;10.06;100.00
9035;BME280;4552;43.422;24.592;2023-11-22T04:07:41;99313.91;;;10.05;100.00
9035;BME280;4552;43.422;24.592;2023-11-22T04:10:08;99314.78;;;10.05;100.00
9035;BME280;4552;43.422;24.592;2023-11-22T04:12:36;99309.56;;;10.05;100.00
9035;BME280;4552;43.422;24.592;2023-11-22T04:15:03;99310.28;;;10.12;100.00
9035;BME280;4552;43.422;24.592;2023-11-22T04:17:34;99325.59;;;10.30;100.00
9035;BME280;4552;43.422;24.592;2023-11-22T04:20:03;99314.75;;;10.08;100.00
9035;BME280;4552;43.422;24.592;2023-11-22T04:22:34;99328.56;;;10.13;100.00
9035;BME280;4552;43.422;24.592;2023-11-22T04:31:45;99336.47;;;10.10;100.00
9035;BME280;4552;43.422;24.592;2023-11-22T04:34:12;99355.47;;;10.18;100.00
9035;BME280;4552;43.422;24.592;2023-11-22T04:36:38;99367.28;;;10.37;100.00
9035;BME280;4552;43.422;24.592;2023-11-22T04:39:05;99355.50;;;10.57;100.00
9035;BME280;4552;43.422;24.592;2023-11-22T04:41:33;99368.72;;;10.50;100.00
9035;BME280;4552;43.422;24.592;2023-11-22T04:44:00;99370.47;;;10.50;100.00
9035;BME280;4552;43.422;24.592;2023-11-22T04:46:28;99359.38;;;10.40;100.00
9035;BME280;4552;43.422;24.592;2023-11-22T04:48:56;99353.59;;;10.25;100.00
9035;BME280;4552;43.422;24.592;2023-11-22T04:51:23;99362.31;;;10.24;100.00
9035;BME280;4552;43.422;24.592;2023-11-22T05:00:34;99365.97;;;10.17;100.00
9035;BME280;4552;43.422;24.592;2023-11-22T05:03:21;99366.66;;;10.26;100.00
9035;BME280;4552;43.422;24.592;2023-11-22T05:06:09;99356.53;;;10.11;100.00
9035;BME280;4552;43.422;24.592;2023-11-22T05:18:41;99380.66;;;10.22;100.00
9035;BME280;4552;43.422;24.592;2023-11-22T05:21:15;99402.22;;;10.33;100.00
9035;BME280;4552;43.422;24.592;2023-11-22T06:30:59;99510.94;;;10.48;100.00
9035;BME280;4552;43.422;24.592;2023-11-22T06:33:25;99519.59;;;10.50;100.00
9035;BME280;4552;43.422;24.592;2023-11-22T06:35:52;99525.00;;;10.42;100.00
9035;BME280;4552;43.422;24.592;2023-11-22T06:38:19;99520.97;;;10.26;100.00
9035;BME280;4552;43.422;24.592;2023-11-22T09:32:29;99693.34;;;10.40;100.00
9035;BME280;4552;43.422;24.592;2023-11-22T09:34:56;99690.63;;;10.46;100.00
9035;BME280;4552;43.422;24.592;2023-11-22T09:37:23;99675.06;;;10.38;100.00
9035;BME280;4552;43.422;24.592;2023-11-22T10:00:04;99683.22;;;10.71;100.00
9035;BME280;4552;43.422;24.592;2023-11-22T10:02:36;99692.13;;;10.61;100.00
9035;BME280;4552;43.422;24.592;2023-11-22T10:05:22;99690.38;;;10.60;100.00
9035;BME280;4552;43.422;24.592;2023-11-22T10:07:49;99684.34;;;10.54;100.00
9035;BME280;4552;43.422;24.592;2023-11-22T10:13:49;99678.09;;;10.65;100.00
9035;BME280;4552;43.422;24.592;2023-11-22T10:16:18;99693.19;;;10.49;100.00
9035;BME280;4552;43.422;24.592;2023-11-22T10:18:47;99701.19;;;10.41;100.00
9035;BME280;4552;43.422;24.592;2023-11-22T10:21:21;99692.47;;;10.39;100.00
9035;BME280;4552;43.422;24.592;2023-11-22T10:23:49;99687.41;;;10.30;100.00
9035;BME280;4552;43.422;24.592;2023-11-22T10:26:18;99709.94;;;10.40;100.00
9035;BME280;4552;43.422;24.592;2023-11-22T10:28:45;99707.00;;;10.59;100.00
9035;BME280;4552;43.422;24.592;2023-11-22T10:31:29;99706.41;;;10.41;100.00
9035;BME280;4552;43.422;24.592;2023-11-22T10:33:56;99702.03;;;10.43;100.00
9035;BME280;4552;43.422;24.592;2023-11-22T10:36:24;99697.72;;;10.39;100.00
9035;BME280;4552;43.422;24.592;2023-11-22T10:38:51;99689.69;;;10.50;100.00
9035;BME280;4552;43.422;24.592;2023-11-22T11:11:09;99729.16;;;10.36;100.00
9035;BME280;4552;43.422;24.592;2023-11-22T11:13:52;99737.53;;;10.57;100.00
9035;BME280;4552;43.422;24.592;2023-11-22T11:16:20;99726.19;;;10.56;100.00
9035;BME280;4552;43.422;24.592;2023-11-22T11:18:48;99725.50;;;10.48;100.00
9035;BME280;4552;43.422;24.592;2023-11-22T11:21:15;99720.94;;;10.57;100.00
9035;BME280;4552;43.422;24.592;2023-11-22T11:23:45;99723.44;;;10.67;100.00
9035;BME280;4552;43.422;24.592;2023-11-22T11:26:26;99714.50;;;10.77;100.00
9035;BME280;4552;43.422;24.592;2023-11-22T11:29:10;99720.78;;;10.68;100.00
9035;BME280;4552;43.422;24.592;2023-11-22T11:31:57;99714.38;;;10.84;100.00
9035;BME280;4552;43.422;24.592;2023-11-22T11:34:24;99725.81;;;10.79;100.00
9035;BME280;4552;43.422;24.592;2023-11-22T11:36:56;99721.22;;;10.93;100.00
9035;BME280;4552;43.422;24.592;2023-11-22T12:20:10;99762.94;;;11.02;100.00
9035;BME280;4552;43.422;24.592;2023-11-22T12:22:59;99767.25;;;11.04;100.00
9035;BME280;4552;43.422;24.592;2023-11-22T12:32:11;99771.44;;;11.13;100.00
9035;BME280;4552;43.422;24.592;2023-11-22T12:34:39;99768.06;;;11.08;100.00
9035;BME280;4552;43.422;24.592;2023-11-22T12:37:27;99767.75;;;11.23;100.00
9035;BME280;4552;43.422;24.592;2023-11-22T12:44:01;99791.94;;;10.91;100.00
9035;BME280;4552;43.422;24.592;2023-11-22T12:46:49;99789.47;;;10.81;100.00
9035;BME280;4552;43.422;24.592;2023-11-22T12:49:23;99788.34;;;10.95;100.00
9035;BME280;4552;43.422;24.592;2023-11-22T12:51:51;99799.84;;;10.87;100.00
9035;BME280;4552;43.422;24.592;2023-11-22T12:54:27;99787.81;;;10.77;100.00
9035;BME280;4552;43.422;24.592;2023-11-22T12:56:54;99802.50;;;10.84;100.00
9035;BME280;4552;43.422;24.592;2023-11-22T12:59:35;99807.66;;;10.88;100.00
9035;BME280;4552;43.422;24.592;2023-11-22T13:02:02;99796.28;;;10.91;100.00
9035;BME280;4552;43.422;24.592;2023-11-22T13:04:29;99819.00;;;10.89;100.00
9035;BME280;4552;43.422;24.592;2023-11-22T13:06:56;99805.97;;;10.86;100.00
9035;BME280;4552;43.422;24.592;2023-11-22T13:09:26;99813.78;;;10.89;100.00
9035;BME280;4552;43.422;24.592;2023-11-22T13:12:18;99825.13;;;10.89;100.00
9035;BME280;4552;43.422;24.592;2023-11-22T13:14:45;99812.09;;;10.86;100.00
9035;BME280;4552;43.422;24.592;2023-11-22T13:17:13;99834.06;;;10.76;100.00
9035;BME280;4552;43.422;24.592;2023-11-22T13:19:59;99831.78;;;11.07;100.00
9035;BME280;4552;43.422;24.592;2023-11-22T13:22:26;99826.88;;;10.89;100.00
9035;BME280;4552;43.422;24.592;2023-11-22T13:24:55;99831.22;;;10.88;100.00
9035;BME280;4552;43.422;24.592;2023-11-22T13:27:24;99821.78;;;10.80;100.00
9035;BME280;4552;43.422;24.592;2023-11-22T13:29:51;99830.38;;;10.89;100.00
9035;BME280;4552;43.422;24.592;2023-11-22T13:32:18;99838.19;;;10.91;100.00
9035;BME280;4552;43.422;24.592;2023-11-22T13:34:50;99849.44;;;10.97;100.00
9035;BME280;4552;43.422;24.592;2023-11-22T13:37:47;99848.50;;;11.00;100.00
9035;BME280;4552;43.422;24.592;2023-11-22T13:40:17;99844.19;;;10.97;100.00
9035;BME280;4552;43.422;24.592;2023-11-22T13:42:49;99852.72;;;11.08;100.00
9035;BME280;4552;43.422;24.592;2023-11-22T13:45:18;99857.28;;;10.99;100.00
9035;BME280;4552;43.422;24.592;2023-11-22T13:47:47;99857.41;;;10.91;100.00
9035;BME280;4552;43.422;24.592;2023-11-22T13:50:14;99856.22;;;11.07;100.00
9035;BME280;4552;43.422;24.592;2023-11-22T13:53:13;99876.47;;;10.98;100.00
9035;BME280;4552;43.422;24.592;2023-11-22T14:32:45;99922.25;;;10.73;100.00
9035;BME280;4552;43.422;24.592;2023-11-22T14:35:30;99937.78;;;10.85;100.00
9035;BME280;4552;43.422;24.592;2023-11-22T14:37:57;99946.66;;;10.75;100.00
9035;BME280;4552;43.422;24.592;2023-11-22T14:54:22;99936.66;;;11.01;100.00
9035;BME280;4552;43.422;24.592;2023-11-22T14:57:07;99940.13;;;11.03;100.00
9035;BME280;4552;43.422;24.592;2023-11-22T14:59:35;99939.28;;;11.01;100.00
9035;BME280;4552;43.422;24.592;2023-11-22T15:02:24;99942.00;;;10.93;100.00
9035;BME280;4552;43.422;24.592;2023-11-22T15:04:52;99952.41;;;10.98;100.00
9035;BME280;4552;43.422;24.592;2023-11-22T15:07:25;99927.75;;;10.53;100.00
9035;BME280;4552;43.422;24.592;2023-11-22T15:09:53;99939.94;;;10.56;100.00
9035;BME280;4552;43.422;24.592;2023-11-22T15:12:24;99953.28;;;10.37;100.00
9035;BME280;4552;43.422;24.592;2023-11-22T15:15:17;99958.53;;;10.36;100.00
9035;BME280;4552;43.422;24.592;2023-11-22T15:17:44;99962.81;;;10.41;100.00
9035;BME280;4552;43.422;24.592;2023-11-22T15:20:18;99958.50;;;10.39;100.00
9035;BME280;4552;43.422;24.592;2023-11-22T15:22:44;99971.00;;;10.14;100.00
9035;BME280;4552;43.422;24.592;2023-11-22T15:45:34;100010.16;;;10.20;100.00
9035;BME280;4552;43.422;24.592;2023-11-22T15:48:11;100015.44;;;10.17;100.00
9035;BME280;4552;43.422;24.592;2023-11-22T15:50:40;100024.13;;;10.16;100.00
9035;BME280;4552;43.422;24.592;2023-11-22T15:53:08;100025.13;;;10.08;100.00
9035;BME280;4552;43.422;24.592;2023-11-22T15:56:12;100025.97;;;10.10;100.00
9035;BME280;4552;43.422;24.592;2023-11-22T15:58:44;100034.50;;;10.25;100.00
9035;BME280;4552;43.422;24.592;2023-11-22T16:01:13;100046.47;;;10.47;100.00
9035;BME280;4552;43.422;24.592;2023-11-22T16:04:01;100051.00;;;10.30;100.00
9035;BME280;4552;43.422;24.592;2023-11-22T16:06:31;100052.81;;;10.27;100.00
9035;BME280;4552;43.422;24.592;2023-11-22T16:09:00;100066.03;;;10.10;100.00
9035;BME280;4552;43.422;24.592;2023-11-22T16:15:11;100087.94;;;9.97;100.00
9035;BME280;4552;43.422;24.592;2023-11-22T16:17:39;100073.25;;;9.81;100.00
9035;BME280;4552;43.422;24.592;2023-11-22T16:20:11;100089.75;;;9.89;100.00
9035;BME280;4552;43.422;24.592;2023-11-22T16:22:47;100072.44;;;9.78;100.00
9035;BME280;4552;43.422;24.592;2023-11-22T16:25:15;100083.59;;;9.93;100.00
9035;BME280;4552;43.422;24.592;2023-11-22T16:27:48;100091.41;;;10.01;100.00
9035;BME280;4552;43.422;24.592;2023-11-22T16:30:16;100091.38;;;10.02;100.00
9035;BME280;4552;43.422;24.592;2023-11-22T16:32:49;100102.75;;;9.95;100.00
9035;BME280;4552;43.422;24.592;2023-11-22T16:35:42;100111.53;;;9.91;100.00
9035;BME280;4552;43.422;24.592;2023-11-22T16:38:39;100113.31;;;9.86;100.00
9035;BME280;4552;43.422;24.592;2023-11-22T16:54:36;100148.28;;;9.73;100.00
9035;BME280;4552;43.422;24.592;2023-11-22T17:03:49;100156.09;;;9.73;100.00
9035;BME280;4552;43.422;24.592;2023-11-22T17:06:16;100162.22;;;9.69;100.00
9035;BME280;4552;43.422;24.592;2023-11-22T17:08:43;100167.44;;;9.69;100.00
9035;BME280;4552;43.422;24.592;2023-11-22T17:11:12;100176.16;;;9.71;100.00
9035;BME280;4552;43.422;24.592;2023-11-22T17:13:38;100174.38;;;9.76;100.00
9035;BME280;4552;43.422;24.592;2023-11-22T17:16:08;100173.50;;;9.76;100.00
9035;BME280;4552;43.422;24.592;2023-11-22T17:21:44;100183.13;;;9.66;100.00
9035;BME280;4552;43.422;24.592;2023-11-22T17:24:26;100197.97;;;9.67;100.00
9035;BME280;4552;43.422;24.592;2023-11-22T17:50:28;100235.44;;;9.60;100.00
9035;BME280;4552;43.422;24.592;2023-11-22T17:52:55;100223.31;;;9.53;100.00
9035;BME280;4552;43.422;24.592;2023-11-22T17:55:22;100245.03;;;9.63;100.00
9035;BME280;4552;43.422;24.592;2023-11-22T17:57:52;100238.94;;;9.62;100.00
9035;BME280;4552;43.422;24.592;2023-11-22T18:00:33;100256.28;;;9.71;100.00
9035;BME280;4552;43.422;24.592;2023-11-22T18:03:11;100264.03;;;9.86;100.00
9035;BME280;4552;43.422;24.592;2023-11-22T18:05:39;100258.03;;;9.73;100.00
9035;BME280;4552;43.422;24.592;2023-11-22T18:08:19;100266.75;;;9.68;100.00
9035;BME280;4552;43.422;24.592;2023-11-22T18:20:54;100287.66;;;9.69;100.00
9035;BME280;4552;43.422;24.592;2023-11-22T18:23:25;100297.28;;;9.57;100.00
9035;BME280;4552;43.422;24.592;2023-11-22T18:39:10;100321.78;;;9.24;100.00
9035;BME280;4552;43.422;24.592;2023-11-22T18:41:38;100316.59;;;9.17;100.00
9035;BME280;4552;43.422;24.592;2023-11-22T18:44:23;100326.16;;;9.13;100.00
9035;BME280;4552;43.422;24.592;2023-11-22T18:46:49;100322.66;;;9.17;100.00
9035;BME280;4552;43.422;24.592;2023-11-22T18:49:16;100310.47;;;9.19;100.00
9035;BME280;4552;43.422;24.592;2023-11-22T18:51:45;100324.44;;;9.15;100.00
9035;BME280;4552;43.422;24.592;2023-11-22T18:54:29;100321.81;;;9.12;100.00
9035;BME280;4552;43.422;24.592;2023-11-22T18:57:10;100315.72;;;9.06;100.00
9035;BME280;4552;43.422;24.592;2023-11-22T18:59:41;100327.88;;;9.16;100.00
9035;BME280;4552;43.422;24.592;2023-11-22T19:02:35;100322.69;;;9.02;100.00
9035;BME280;4552;43.422;24.592;2023-11-22T19:05:02;100325.28;;;9.11;100.00
9035;BME280;4552;43.422;24.592;2023-11-22T19:08:00;100320.97;;;9.01;100.00
9035;BME280;4552;43.422;24.592;2023-11-22T19:10:31;100327.91;;;9.05;100.00
9035;BME280;4552;43.422;24.592;2023-11-22T19:12:59;100338.34;;;9.05;100.00
9035;BME280;4552;43.422;24.592;2023-11-22T19:15:41;100336.63;;;8.95;100.00
9035;BME280;4552;43.422;24.592;2023-11-22T19:18:11;100334.91;;;9.00;100.00
9035;BME280;4552;43.422;24.592;2023-11-22T19:20:56;100350.56;;;9.05;100.00
9035;BME280;4552;43.422;24.592;2023-11-22T19:23:39;100361.84;;;9.14;100.00
9035;BME280;4552;43.422;24.592;2023-11-22T19:26:51;100361.81;;;9.23;100.00
9035;BME280;4552;43.422;24.592;2023-11-22T19:29:19;100353.97;;;9.26;100.00
9035;BME280;4552;43.422;24.592;2023-11-22T19:31:48;100354.88;;;9.22;100.00
9035;BME280;4552;43.422;24.592;2023-11-22T19:34:15;100367.91;;;9.34;100.00
9035;BME280;4552;43.422;24.592;2023-11-22T19:36:42;100368.81;;;9.26;100.00
9035;BME280;4552;43.422;24.592;2023-11-22T19:39:11;100366.22;;;9.08;100.00
9035;BME280;4552;43.422;24.592;2023-11-22T19:55:09;100388.84;;;8.94;100.00
9035;BME280;4552;43.422;24.592;2023-11-22T19:57:40;100403.63;;;8.73;100.00
9035;BME280;4552;43.422;24.592;2023-11-22T20:00:19;100374.03;;;8.58;100.00
9035;BME280;4552;43.422;24.592;2023-11-22T20:02:47;100388.78;;;8.50;100.00
9035;BME280;4552;43.422;24.592;2023-11-22T20:05:14;100391.38;;;8.44;100.00
9035;BME280;4552;43.422;24.592;2023-11-22T20:07:41;100409.66;;;8.59;100.00
9035;BME280;4552;43.422;24.592;2023-11-22T21:18:02;100478.19;;;8.14;100.00
9035;BME280;4552;43.422;24.592;2023-11-22T21:20:30;100466.81;;;7.96;100.00
9035;BME280;4552;43.422;24.592;2023-11-22T21:23:10;100473.81;;;8.09;100.00
9035;BME280;4552;43.422;24.592;2023-11-22T21:26:05;100462.50;;;8.02;100.00
9035;BME280;4552;43.422;24.592;2023-11-22T21:28:32;100466.84;;;8.08;100.00
9035;BME280;4552;43.422;24.592;2023-11-22T21:30:59;100489.56;;;8.30;100.00
9035;BME280;4552;43.422;24.592;2023-11-22T21:33:28;100491.31;;;8.28;100.00
9035;BME280;4552;43.422;24.592;2023-11-22T21:35:57;100499.16;;;8.31;100.00
9035;BME280;4552;43.422;24.592;2023-11-22T21:38:28;100502.56;;;8.24;100.00
9035;BME280;4552;43.422;24.592;2023-11-22T22:18:23;100535.19;;;7.62;100.00
9035;BME280;4552;43.422;24.592;2023-11-22T22:20:50;100538.66;;;7.61;100.00
9035;BME280;4552;43.422;24.592;2023-11-22T22:23:17;100537.63;;;7.44;100.00
9035;BME280;4552;43.422;24.592;2023-11-22T22:25:45;100526.19;;;7.24;100.00
9035;BME280;4552;43.422;24.592;2023-11-22T22:28:12;100522.69;;;7.22;100.00
9035;BME280;4552;43.422;24.592;2023-11-22T22:30:39;100532.22;;;7.20;100.00
9035;BME280;4552;43.422;24.592;2023-11-22T22:33:06;100532.34;;;7.32;100.00
9035;BME280;4552;43.422;24.592;2023-11-22T22:35:34;100525.31;;;7.26;100.00
9035;BME280;4552;43.422;24.592;2023-11-22T22:38:01;100536.53;;;7.16;100.00
9035;BME280;4552;43.422;24.592;2023-11-22T23:04:35;100547.81;;;7.17;100.00
9035;BME280;4552;43.422;24.592;2023-11-22T23:07:08;100534.84;;;7.21;100.00
9035;BME280;4552;43.422;24.592;2023-11-22T23:09:35;100550.53;;;7.29;100.00
9035;BME280;4552;43.422;24.592;2023-11-22T23:12:03;100548.72;;;7.25;100.00
9035;BME280;4552;43.422;24.592;2023-11-22T23:14:31;100555.69;;;7.24;100.00
9035;BME280;4552;43.422;24.592;2023-11-22T23:17:01;100561.69;;;7.19;100.00
9035;BME280;4552;43.422;24.592;2023-11-22T23:19:28;100559.97;;;7.18;100.00
9035;BME280;4552;43.422;24.592;2023-11-22T23:21:58;100561.78;;;7.28;100.00
9035;BME280;4552;43.422;24.592;2023-11-22T23:24:27;100555.81;;;7.38;100.00
9035;BME280;4552;43.422;24.592;2023-11-22T23:43:46;100569.41;;;7.09;100.00
9035;BME280;4552;43.422;24.592;2023-11-22T23:46:16;100577.31;;;7.19;100.00
9035;BME280;4552;43.422;24.592;2023-11-22T23:48:43;100570.22;;;7.02;100.00
9035;BME280;4552;43.422;24.592;2023-11-22T23:51:10;100570.16;;;6.96;100.00
9035;BME280;4552;43.422;24.592;2023-11-22T23:53:37;100568.53;;;7.07;100.00
